TimeMST,TemperatureF,Dew PointF,Humidity,Sea Level PressureIn,VisibilityMPH,Wind Direction,Wind SpeedMPH,Gust SpeedMPH,PrecipitationIn,Events,Conditions,WindDirDegrees,DateUTC
12:53 AM,25.0,-4.0,28,29.94,10.0,WNW,12.7,-,N/A,,Clear,290,2012-12-30 07:53:00
1:53 AM,21.9,-5.1,30,29.96,10.0,WNW,11.5,-,N/A,,Clear,300,2012-12-30 08:53:00
2:53 AM,25.0,-5.1,27,29.96,10.0,WNW,11.5,-,N/A,,Clear,300,2012-12-30 09:53:00
3:53 AM,23.0,-4.0,31,29.99,10.0,West,17.3,23.0,N/A,,Clear,270,2012-12-30 10:53:00
4:53 AM,27.0,-2.0,29,29.97,10.0,WNW,13.8,-,N/A,,Clear,290,2012-12-30 11:53:00
5:53 AM,27.0,3.0,36,30.00,10.0,West,15.0,-,N/A,,Clear,270,2012-12-30 12:53:00
6:53 AM,28.9,1.9,32,30.03,10.0,WNW,4.6,-,N/A,,Clear,290,2012-12-30 13:53:00
7:53 AM,28.0,5.0,38,30.05,10.0,WNW,10.4,-,N/A,,Clear,290,2012-12-30 14:53:00
8:53 AM,30.9,5.0,33,30.06,10.0,NW,4.6,-,N/A,,Clear,320,2012-12-30 15:53:00
9:53 AM,32.0,3.9,31,30.08,10.0,West,5.8,-,N/A,,Clear,280,2012-12-30 16:53:00
10:53 AM,30.9,9.0,40,30.09,10.0,NNE,5.8,-,N/A,,Clear,20,2012-12-30 17:53:00
11:53 AM,28.9,10.0,45,30.01,10.0,NNW,11.5,-,N/A,,Clear,340,2012-12-30 18:53:00
12:53 PM,28.0,10.9,49,29.98,10.0,North,6.9,-,N/A,,Clear,10,2012-12-30 19:53:00
1:53 PM,28.9,12.0,49,30.00,10.0,North,13.8,21.9,N/A,,Clear,360,2012-12-30 20:53:00
2:53 PM,27.0,10.9,51,30.01,10.0,North,12.7,-,N/A,,Clear,10,2012-12-30 21:53:00
3:53 PM,21.9,9.0,58,30.07,10.0,NE,8.1,-,N/A,,Clear,50,2012-12-30 22:53:00
4:53 PM,19.0,7.0,59,30.07,10.0,North,6.9,-,N/A,,Clear,350,2012-12-30 23:53:00
5:53 PM,18.0,5.0,57,30.11,10.0,NNW,5.8,-,N/A,,Clear,330,2012-12-31 00:53:00
6:53 PM,16.0,3.9,59,30.09,10.0,NW,4.6,-,N/A,,Mostly Cloudy,310,2012-12-31 01:53:00
7:53 PM,10.9,3.0,70,30.13,10.0,West,8.1,-,N/A,,Partly Cloudy,260,2012-12-31 02:53:00
8:53 PM,10.0,1.9,70,30.12,10.0,West,3.5,-,N/A,,Mostly Cloudy,280,2012-12-31 03:53:00
9:53 PM,10.9,3.0,70,30.12,10.0,West,3.5,-,N/A,,Overcast,260,2012-12-31 04:53:00
10:53 PM,10.0,3.0,73,30.14,10.0,WSW,3.5,-,N/A,,Scattered Clouds,240,2012-12-31 05:53:00
11:53 PM,12.9,3.9,67,30.12,10.0,Calm,Calm,-,N/A,,Overcast,0,2012-12-31 06:53:00